Time;durP1;ratioP1;P1;durP2;ratioP2;P2;SDS_P1;SDS_P2;PMS_P1;PMS_P2;Temp;Humidity;BMP_temperature;BMP_pressure;BME280_temperature;BME280_humidity;BME280_pressure;Samples;Min_cycle;Max_cycle;Signal;HPM_P1;HPM_P2
2021/10/13 00:00:53;;;;;;;4.83;4.33;;;4.30;99.90;;;;;;5093499;27;20313;-47
2021/10/13 00:03:20;;;;;;;4.50;4.10;;;4.30;99.90;;;;;;5105970;28;20573;-48
2021/10/13 00:05:48;;;;;;;4.50;4.10;;;4.30;99.90;;;;;;5100429;28;20205;-46
2021/10/13 00:08:14;;;;;;;4.17;3.77;;;4.30;99.90;;;;;;5104949;28;20662;-45
2021/10/13 00:10:42;;;;;;;4.50;4.10;;;4.20;99.90;;;;;;5095583;27;20197;-53
2021/10/13 00:13:08;;;;;;;6.23;4.40;;;4.20;99.90;;;;;;5109331;27;20304;-50
2021/10/13 00:15:35;;;;;;;4.83;4.40;;;4.10;99.90;;;;;;5096256;27;20189;-48
2021/10/13 00:18:02;;;;;;;4.70;4.30;;;4.20;99.90;;;;;;5104651;27;20279;-50
2021/10/13 00:20:28;;;;;;;6.47;4.70;;;4.30;99.90;;;;;;5105680;27;20658;-46
2021/10/13 00:22:56;;;;;;;4.50;3.97;;;4.30;99.90;;;;;;5096512;28;20200;-48
2021/10/13 00:25:23;;;;;;;4.43;4.03;;;4.30;99.90;;;;;;5099776;28;20214;-47
2021/10/13 00:27:50;;;;;;;4.87;4.37;;;4.30;99.90;;;;;;5088732;28;20258;-50
2021/10/13 00:30:16;;;;;;;4.33;3.93;;;4.20;99.90;;;;;;5101865;28;20193;-47
2021/10/13 00:32:43;;;;;;;4.07;3.70;;;4.20;99.90;;;;;;5091422;27;20209;-50
2021/10/13 00:35:11;;;;;;;4.03;3.73;;;4.20;99.90;;;;;;5103439;28;20694;-45
2021/10/13 00:37:37;;;;;;;4.33;3.87;;;4.20;99.90;;;;;;5101623;28;20204;-52
2021/10/13 00:40:07;;;;;;;4.63;4.23;;;4.20;99.90;;;;;;5103317;28;20890;-46
2021/10/13 00:42:34;;;;;;;3.93;3.63;;;4.30;99.90;;;;;;5093061;28;20189;-51
2021/10/13 00:45:01;;;;;;;4.50;4.10;;;4.20;99.90;;;;;;5103775;27;20212;-53
2021/10/13 00:47:27;;;;;;;4.30;3.90;;;4.20;99.90;;;;;;5100669;27;20201;-50
2021/10/13 00:49:54;;;;;;;3.70;3.40;;;4.20;99.90;;;;;;5101327;28;20220;-50
2021/10/13 00:52:21;;;;;;;4.80;3.90;;;4.10;99.90;;;;;;5102943;28;20205;-47
2021/10/13 00:54:47;;;;;;;5.60;4.20;;;4.10;99.90;;;;;;5099677;28;20223;-47
2021/10/13 00:57:15;;;;;;;4.40;4.00;;;4.00;99.90;;;;;;5104005;28;20193;-48
2021/10/13 00:59:42;;;;;;;4.60;4.20;;;4.10;99.90;;;;;;5092578;28;20206;-53
2021/10/13 01:02:11;;;;;;;3.90;3.60;;;4.00;99.90;;;;;;5103370;28;20209;-47
2021/10/13 01:04:54;;;;;;;4.40;4.10;;;4.00;99.90;;;;;;5093614;27;20223;-51
2021/10/13 01:07:32;;;;;;;4.23;3.83;;;3.90;99.90;;;;;;5101047;28;20212;-51
2021/10/13 01:10:03;;;;;;;4.63;4.23;;;4.00;99.90;;;;;;5103767;28;20204;-48
2021/10/13 01:12:45;;;;;;;5.23;4.73;;;4.00;99.90;;;;;;5102518;28;20210;-50
2021/10/13 01:15:18;;;;;;;5.23;4.37;;;4.10;99.90;;;;;;5097269;28;20224;-46
2021/10/13 01:17:53;;;;;;;6.63;4.77;;;4.10;99.90;;;;;;5091636;28;20219;-53
2021/10/13 01:20:32;;;;;;;5.10;4.60;;;4.00;99.90;;;;;;5101136;28;20197;-52
2021/10/13 01:23:24;;;;;;;4.90;4.50;;;4.10;99.90;;;;;;5099218;28;20205;-50
2021/10/13 01:25:58;;;;;;;7.13;4.50;;;4.00;99.90;;;;;;5101718;28;20205;-46
2021/10/13 01:28:31;;;;;;;5.27;4.40;;;4.00;99.90;;;;;;5106207;28;20203;-47
2021/10/13 01:31:01;;;;;;;5.20;4.33;;;4.10;99.90;;;;;;5100860;28;20193;-49
2021/10/13 01:33:34;;;;;;;4.73;4.30;;;4.10;99.90;;;;;;5093389;28;20223;-49
2021/10/13 01:36:04;;;;;;;4.77;4.30;;;4.10;99.90;;;;;;5102375;28;20189;-48
2021/10/13 01:38:36;;;;;;;4.47;4.07;;;4.10;99.90;;;;;;5103364;28;20205;-50
2021/10/13 01:41:05;;;;;;;4.40;4.00;;;4.10;99.90;;;;;;5103820;28;20205;-47
2021/10/13 01:43:37;;;;;;;4.33;3.93;;;4.10;99.90;;;;;;5101038;28;20217;-50
2021/10/13 01:46:06;;;;;;;4.17;3.43;;;4.00;99.90;;;;;;5096894;28;20204;-46
2021/10/13 01:48:34;;;;;;;4.47;4.07;;;4.00;99.90;;;;;;5097456;27;20190;-52
2021/10/13 01:51:02;;;;;;;6.17;4.50;;;3.90;99.90;;;;;;5106690;27;20706;-49
2021/10/13 01:53:29;;;;;;;5.00;4.50;;;3.80;99.90;;;;;;5106217;27;20217;-48
2021/10/13 01:55:57;;;;;;;4.33;3.93;;;3.80;99.90;;;;;;5108052;27;20201;-50
2021/10/13 01:58:25;;;;;;;4.50;4.10;;;3.90;99.90;;;;;;5107526;28;20554;-52
2021/10/13 02:00:53;;;;;;;4.53;4.17;;;3.80;99.90;;;;;;5097126;27;20205;-47
2021/10/13 02:03:24;;;;;;;6.53;4.00;;;3.90;99.90;;;;;;5106784;28;20772;-52
2021/10/13 02:05:53;;;;;;;4.90;4.43;;;3.90;99.90;;;;;;5106580;27;20201;-45
2021/10/13 02:08:23;;;;;;;4.47;4.03;;;3.80;99.90;;;;;;5102651;28;20207;-54
2021/10/13 02:10:51;;;;;;;4.37;3.97;;;3.70;99.90;;;;;;5104010;28;20216;-47
2021/10/13 02:13:18;;;;;;;5.93;4.20;;;3.70;99.90;;;;;;5105077;28;20224;-53
2021/10/13 02:15:46;;;;;;;4.20;3.80;;;3.60;99.90;;;;;;5105096;28;20217;-48
2021/10/13 02:18:17;;;;;;;5.27;3.60;;;3.60;99.90;;;;;;5101570;27;20209;-52
2021/10/13 02:20:45;;;;;;;4.80;4.27;;;3.60;99.90;;;;;;5100921;27;20220;-49
2021/10/13 02:23:14;;;;;;;4.57;3.97;;;3.60;99.90;;;;;;5108657;28;20805;-52
2021/10/13 02:25:43;;;;;;;4.53;4.10;;;3.60;99.90;;;;;;5106781;28;20193;-49
2021/10/13 02:28:13;;;;;;;4.80;3.90;;;3.60;99.90;;;;;;5109461;28;20208;-52
2021/10/13 02:30:41;;;;;;;4.43;4.03;;;3.50;99.90;;;;;;5099276;28;20193;-49
2021/10/13 02:33:07;;;;;;;7.17;4.63;;;3.50;99.90;;;;;;5093171;27;20240;-51
2021/10/13 02:35:36;;;;;;;4.37;3.97;;;3.50;99.90;;;;;;5092669;27;20263;-48
2021/10/13 02:38:02;;;;;;;4.53;4.13;;;3.50;99.90;;;;;;5102409;28;20197;-50
2021/10/13 02:40:29;;;;;;;4.90;3.67;;;3.50;99.90;;;;;;5102176;28;20208;-50
2021/10/13 02:42:56;;;;;;;7.77;4.53;;;3.50;99.90;;;;;;5108522;28;20205;-50
2021/10/13 02:45:23;;;;;;;4.40;4.00;;;3.40;99.90;;;;;;5106373;28;20189;-50
2021/10/13 02:47:55;;;;;;;3.90;3.60;;;3.40;99.90;;;;;;5100260;27;20216;-47
2021/10/13 02:50:27;;;;;;;4.40;4.00;;;3.40;99.90;;;;;;5095708;27;20208;-53
2021/10/13 02:53:04;;;;;;;4.17;3.80;;;3.40;99.90;;;;;;5110186;27;20221;-46
2021/10/13 02:55:35;;;;;;;3.97;3.67;;;3.30;99.90;;;;;;5102097;28;20221;-46
2021/10/13 02:58:07;;;;;;;4.93;4.07;;;3.30;99.90;;;;;;5105651;28;20201;-48
2021/10/13 03:00:36;;;;;;;4.27;3.87;;;3.20;99.90;;;;;;5104360;28;20216;-48
2021/10/13 03:03:06;;;;;;;4.20;3.80;;;3.20;99.90;;;;;;5102185;27;20228;-45
2021/10/13 03:05:35;;;;;;;4.80;3.97;;;3.10;99.90;;;;;;5104095;28;20210;-47
2021/10/13 03:08:06;;;;;;;4.50;4.10;;;3.20;99.90;;;;;;5099782;27;20216;-49
2021/10/13 03:10:34;;;;;;;3.70;3.40;;;3.10;99.90;;;;;;5103986;28;20201;-47
2021/10/13 03:13:03;;;;;;;4.43;3.87;;;3.10;99.90;;;;;;5108301;28;20267;-47
2021/10/13 03:15:31;;;;;;;4.37;3.60;;;3.00;99.90;;;;;;5103667;28;20318;-50
2021/10/13 03:17:59;;;;;;;4.63;4.23;;;3.10;99.90;;;;;;5107865;28;20204;-48
2021/10/13 03:20:27;;;;;;;4.03;3.63;;;3.10;99.90;;;;;;5096993;27;20212;-50
2021/10/13 03:22:57;;;;;;;4.77;4.27;;;3.00;99.90;;;;;;5104134;27;20574;-45
2021/10/13 03:25:26;;;;;;;3.87;3.47;;;3.00;99.90;;;;;;5105785;28;20551;-54
2021/10/13 03:27:53;;;;;;;4.03;3.63;;;3.00;99.90;;;;;;5107489;27;20646;-49
2021/10/13 03:30:20;;;;;;;3.77;3.47;;;3.00;99.90;;;;;;5105363;28;20727;-51
2021/10/13 03:32:48;;;;;;;3.80;3.50;;;2.90;99.90;;;;;;5106505;28;20977;-46
2021/10/13 03:35:21;;;;;;;7.37;4.07;;;2.90;99.90;;;;;;5097432;27;20220;-47
2021/10/13 03:37:48;;;;;;;7.53;4.13;;;2.90;99.90;;;;;;5093805;27;20224;-48
2021/10/13 03:40:15;;;;;;;51.87;5.17;;;3.00;99.90;;;;;;5104347;27;20556;-49
2021/10/13 03:42:43;;;;;;;12.27;4.50;;;3.10;99.90;;;;;;5103612;28;20193;-52
2021/10/13 03:45:12;;;;;;;46.60;5.50;;;3.20;99.90;;;;;;5101248;28;20194;-54
2021/10/13 03:47:39;;;;;;;40.87;5.23;;;3.30;99.90;;;;;;5097941;28;20201;-50
2021/10/13 03:50:07;;;;;;;19.00;5.60;;;3.40;99.90;;;;;;5100645;28;20597;-50
2021/10/13 03:52:33;;;;;;;19.77;4.70;;;3.50;99.90;;;;;;5093372;28;20189;-49
2021/10/13 03:55:00;;;;;;;9.23;4.53;;;3.50;99.90;;;;;;5096531;27;20216;-49
2021/10/13 03:57:27;;;;;;;12.23;4.60;;;3.60;99.90;;;;;;5101241;28;20190;-49
2021/10/13 03:59:55;;;;;;;11.80;4.27;;;3.60;99.90;;;;;;5105078;28;20205;-45
2021/10/13 04:02:21;;;;;;;12.53;3.90;;;3.60;99.90;;;;;;5092288;27;20700;-51
2021/10/13 04:04:48;;;;;;;34.60;4.20;;;3.70;99.90;;;;;;5103535;28;20216;-45
2021/10/13 04:07:15;;;;;;;9.93;4.33;;;3.70;99.90;;;;;;5097894;28;20204;-51
2021/10/13 04:09:41;;;;;;;13.63;4.20;;;3.70;99.90;;;;;;5097043;27;20220;-48
2021/10/13 04:12:08;;;;;;;5.43;4.63;;;3.70;99.90;;;;;;5105245;27;20559;-48
2021/10/13 04:14:35;;;;;;;10.00;4.57;;;3.80;99.90;;;;;;5100358;27;21043;-47
2021/10/13 04:17:03;;;;;;;18.30;4.63;;;3.80;99.90;;;;;;5104627;28;20196;-51
2021/10/13 04:19:30;;;;;;;27.43;5.40;;;3.80;99.90;;;;;;5101613;27;20267;-50
2021/10/13 04:21:56;;;;;;;22.47;5.50;;;3.90;99.90;;;;;;5097488;27;20201;-45
2021/10/13 04:24:23;;;;;;;12.20;5.43;;;3.90;99.90;;;;;;5096064;27;20224;-53
2021/10/13 04:26:50;;;;;;;31.00;5.60;;;3.90;99.90;;;;;;5104212;27;20208;-49
2021/10/13 04:29:17;;;;;;;19.97;5.70;;;3.90;99.90;;;;;;5105742;28;20197;-49
2021/10/13 04:31:43;;;;;;;19.73;5.83;;;3.90;99.90;;;;;;5102174;28;20201;-50
2021/10/13 04:34:11;;;;;;;26.23;6.03;;;3.90;99.90;;;;;;5106720;28;20670;-49
2021/10/13 04:36:38;;;;;;;55.57;6.60;;;4.00;99.90;;;;;;5103690;28;20201;-52
2021/10/13 04:39:05;;;;;;;25.63;5.27;;;4.00;99.90;;;;;;5099561;28;20532;-47
2021/10/13 04:41:33;;;;;;;30.00;6.17;;;4.00;99.90;;;;;;5097144;27;20952;-48
2021/10/13 04:43:59;;;;;;;26.40;5.23;;;4.10;99.90;;;;;;5106738;28;20222;-48
2021/10/13 04:46:26;;;;;;;9.33;5.30;;;4.10;99.90;;;;;;5103568;28;20197;-53
2021/10/13 04:48:53;;;;;;;25.83;5.30;;;4.10;99.90;;;;;;5106420;28;20189;-45
2021/10/13 04:51:21;;;;;;;10.43;5.03;;;4.10;99.90;;;;;;5101892;28;20204;-54
2021/10/13 04:53:47;;;;;;;10.50;5.20;;;4.10;99.90;;;;;;5084074;27;20228;-52
2021/10/13 04:56:14;;;;;;;21.23;4.97;;;4.20;99.90;;;;;;5090263;27;20202;-46
2021/10/13 04:58:41;;;;;;;17.57;4.60;;;4.20;99.90;;;;;;5096898;28;20204;-47
2021/10/13 05:01:08;;;;;;;6.03;4.30;;;4.20;99.90;;;;;;5091218;28;20201;-48
2021/10/13 05:03:35;;;;;;;6.17;3.90;;;4.20;99.90;;;;;;5096715;28;20233;-48
2021/10/13 05:06:01;;;;;;;8.10;3.73;;;4.10;99.90;;;;;;5096009;28;20853;-49
2021/10/13 05:08:29;;;;;;;15.00;3.53;;;4.10;99.90;;;;;;5100824;28;20189;-49
2021/10/13 05:10:56;;;;;;;10.27;3.50;;;4.10;99.90;;;;;;5089372;28;20206;-48
2021/10/13 05:13:22;;;;;;;13.77;3.40;;;4.10;99.90;;;;;;5103472;27;20239;-51
2021/10/13 05:15:49;;;;;;;3.87;3.20;;;4.00;99.90;;;;;;5095340;28;20209;-52
2021/10/13 05:18:16;;;;;;;8.60;3.87;;;4.00;99.90;;;;;;5099454;28;20197;-49
2021/10/13 05:20:44;;;;;;;11.93;3.40;;;4.00;99.90;;;;;;5092348;28;20716;-52
2021/10/13 05:23:11;;;;;;;12.73;3.80;;;3.90;99.90;;;;;;5096645;28;20217;-52
2021/10/13 05:25:38;;;;;;;4.13;3.70;;;4.00;99.90;;;;;;5092528;28;20613;-48
2021/10/13 05:28:05;;;;;;;8.87;3.33;;;3.90;99.90;;;;;;5090753;28;20204;-46
2021/10/13 05:30:32;;;;;;;3.53;2.97;;;3.90;99.90;;;;;;5094561;28;20201;-50
2021/10/13 05:32:58;;;;;;;3.37;3.03;;;3.80;99.90;;;;;;5096412;28;20193;-52
2021/10/13 05:35:25;;;;;;;3.60;3.30;;;3.80;99.90;;;;;;5102122;28;20221;-49
2021/10/13 05:37:51;;;;;;;4.90;3.03;;;3.80;99.90;;;;;;5099352;28;20807;-48
2021/10/13 05:40:18;;;;;;;3.43;3.20;;;3.90;99.90;;;;;;5095687;28;20258;-47
2021/10/13 05:42:46;;;;;;;3.23;3.03;;;3.90;99.90;;;;;;5088549;28;20205;-50
2021/10/13 05:45:13;;;;;;;3.80;3.50;;;3.80;99.90;;;;;;5097558;28;20250;-45
2021/10/13 05:47:39;;;;;;;2.83;2.67;;;3.70;99.90;;;;;;5100687;28;20193;-51
2021/10/13 05:50:06;;;;;;;3.20;3.00;;;3.60;99.90;;;;;;5100696;28;20190;-50
2021/10/13 05:52:33;;;;;;;6.70;3.57;;;3.70;99.90;;;;;;5103359;28;20209;-49
2021/10/13 05:55:00;;;;;;;3.00;2.80;;;3.60;99.90;;;;;;5101918;28;20869;-45
2021/10/13 05:57:26;;;;;;;4.13;3.53;;;3.60;99.90;;;;;;5088562;28;20224;-48
2021/10/13 05:59:57;;;;;;;4.80;3.37;;;3.60;99.90;;;;;;5098230;28;20194;-49
2021/10/13 06:02:24;;;;;;;4.40;3.10;;;3.50;99.90;;;;;;5102565;28;20288;-49
2021/10/13 06:04:51;;;;;;;3.33;3.03;;;3.50;99.90;;;;;;5098579;28;20221;-47
2021/10/13 06:07:17;;;;;;;5.40;3.50;;;3.50;99.90;;;;;;5104113;28;20204;-45
2021/10/13 06:09:44;;;;;;;4.27;3.33;;;3.50;99.90;;;;;;5104581;28;20224;-54
2021/10/13 06:12:11;;;;;;;3.77;3.47;;;3.50;99.90;;;;;;5095851;28;20206;-48
2021/10/13 06:14:37;;;;;;;3.93;3.57;;;3.50;99.90;;;;;;5090138;28;20228;-48
2021/10/13 06:17:06;;;;;;;3.80;3.50;;;3.50;99.90;;;;;;5098029;28;20221;-45
2021/10/13 06:19:33;;;;;;;4.53;4.13;;;3.60;99.90;;;;;;5101403;28;20193;-50
2021/10/13 06:21:59;;;;;;;5.43;3.77;;;3.70;99.90;;;;;;5103694;28;20205;-45
2021/10/13 06:24:26;;;;;;;4.23;3.43;;;3.60;99.90;;;;;;5099218;28;20235;-49
2021/10/13 06:26:53;;;;;;;3.90;3.57;;;3.70;99.90;;;;;;5095138;28;20205;-45
2021/10/13 06:29:19;;;;;;;6.93;4.63;;;3.80;99.90;;;;;;5087328;28;20212;-47
2021/10/13 06:31:46;;;;;;;4.00;3.60;;;3.80;99.90;;;;;;5088778;28;20198;-50
2021/10/13 06:34:15;;;;;;;4.10;3.80;;;3.80;99.90;;;;;;5095458;28;20221;-50
2021/10/13 06:36:42;;;;;;;4.23;3.87;;;3.90;99.90;;;;;;5094144;28;20290;-46
2021/10/13 06:39:08;;;;;;;4.17;3.83;;;3.90;99.90;;;;;;5101068;28;20192;-49
2021/10/13 06:41:35;;;;;;;4.30;3.90;;;4.00;99.90;;;;;;5095683;28;20205;-47
2021/10/13 06:44:02;;;;;;;4.30;3.90;;;4.00;99.90;;;;;;5086350;27;20209;-48
2021/10/13 06:46:29;;;;;;;4.50;4.10;;;4.10;99.90;;;;;;5097465;28;20201;-50
2021/10/13 06:48:55;;;;;;;4.40;4.00;;;4.10;99.90;;;;;;5098279;28;20202;-48
2021/10/13 06:51:23;;;;;;;8.47;4.90;;;4.20;99.90;;;;;;5105398;27;20673;-46
2021/10/13 06:53:50;;;;;;;5.73;4.73;;;4.30;99.90;;;;;;5101786;28;20213;-49
2021/10/13 06:56:17;;;;;;;5.90;4.23;;;4.40;99.90;;;;;;5099479;28;20248;-51
2021/10/13 06:58:43;;;;;;;4.73;4.33;;;4.40;99.90;;;;;;5093929;27;20284;-52
2021/10/13 07:01:10;;;;;;;4.63;4.03;;;4.50;99.90;;;;;;5092515;27;20202;-48
2021/10/13 07:03:37;;;;;;;7.63;5.20;;;4.60;99.90;;;;;;5099880;28;20221;-45
2021/10/13 07:06:03;;;;;;;5.87;5.07;;;4.80;99.90;;;;;;5096406;28;20874;-49
2021/10/13 07:08:31;;;;;;;8.10;5.40;;;4.90;99.90;;;;;;5097343;28;20208;-48
2021/10/13 07:10:58;;;;;;;5.33;4.90;;;5.10;99.90;;;;;;5100853;28;20204;-54
2021/10/13 07:13:24;;;;;;;6.37;5.70;;;5.20;99.90;;;;;;5086422;27;20221;-47
2021/10/13 07:15:51;;;;;;;7.00;5.93;;;5.30;99.90;;;;;;5100134;28;20220;-54
2021/10/13 07:18:18;;;;;;;6.20;5.60;;;5.40;99.90;;;;;;5095626;28;20301;-50
2021/10/13 07:20:45;;;;;;;6.20;5.60;;;5.50;99.90;;;;;;5102261;27;20201;-52
2021/10/13 07:23:11;;;;;;;5.50;4.83;;;5.50;99.90;;;;;;5096901;27;20331;-48
2021/10/13 07:25:40;;;;;;;6.30;5.60;;;5.60;99.90;;;;;;5104559;28;20197;-51
2021/10/13 07:28:07;;;;;;;7.00;5.13;;;5.60;99.90;;;;;;5088565;27;20213;-49
2021/10/13 07:30:34;;;;;;;9.40;6.00;;;5.70;99.90;;;;;;5090145;27;20205;-49
2021/10/13 07:33:01;;;;;;;6.93;5.60;;;5.70;99.90;;;;;;5092826;27;20228;-49
2021/10/13 07:35:29;;;;;;;6.43;5.70;;;5.80;99.90;;;;;;5095214;28;20608;-50
2021/10/13 07:37:57;;;;;;;7.43;5.60;;;5.80;99.90;;;;;;5096991;28;20267;-49
2021/10/13 07:40:24;;;;;;;14.63;7.27;;;5.90;99.90;;;;;;5095768;28;20558;-52
2021/10/13 07:42:53;;;;;;;9.83;6.00;;;6.00;99.90;;;;;;5094999;28;20197;-52
2021/10/13 07:45:21;;;;;;;5.80;5.27;;;6.10;99.90;;;;;;5079553;27;20212;-48
2021/10/13 07:47:48;;;;;;;8.23;5.80;;;6.10;99.90;;;;;;5100743;28;20208;-53
2021/10/13 07:50:16;;;;;;;15.07;7.17;;;6.20;99.90;;;;;;5098721;28;20221;-50
2021/10/13 07:52:43;;;;;;;11.50;6.27;;;6.30;99.90;;;;;;5101303;28;20747;-51
2021/10/13 07:55:09;;;;;;;8.73;6.57;;;6.40;99.90;;;;;;5096631;28;20204;-48
2021/10/13 07:57:36;;;;;;;8.83;6.37;;;6.40;99.90;;;;;;5105802;27;20236;-51
2021/10/13 08:00:05;;;;;;;8.47;5.83;;;6.50;99.90;;;;;;5081961;27;20209;-46
2021/10/13 08:02:32;;;;;;;7.93;5.43;;;6.50;99.90;;;;;;5101905;28;20205;-47
2021/10/13 08:04:59;;;;;;;7.40;6.10;;;6.50;99.90;;;;;;5094654;27;20221;-46
2021/10/13 08:07:25;;;;;;;5.77;5.20;;;6.60;99.90;;;;;;5103342;28;20194;-48
2021/10/13 08:09:52;;;;;;;7.10;6.20;;;6.70;99.90;;;;;;5098963;28;20744;-52
2021/10/13 08:12:19;;;;;;;7.67;6.30;;;6.90;99.90;;;;;;5101349;28;20209;-47
2021/10/13 08:14:45;;;;;;;6.60;5.97;;;7.00;99.90;;;;;;5099059;28;20602;-51
2021/10/13 08:17:13;;;;;;;7.10;5.20;;;7.10;99.90;;;;;;5086096;27;20205;-46
2021/10/13 08:19:40;;;;;;;8.37;6.20;;;7.20;99.90;;;;;;5094659;27;20682;-52
2021/10/13 08:22:07;;;;;;;7.13;6.43;;;7.40;99.90;;;;;;5098672;28;20200;-47
2021/10/13 08:24:34;;;;;;;7.67;6.83;;;7.60;99.90;;;;;;5105668;28;20223;-45
2021/10/13 08:27:02;;;;;;;9.30;6.57;;;7.70;99.90;;;;;;5097556;28;20189;-49
2021/10/13 08:29:29;;;;;;;7.53;5.20;;;7.90;99.90;;;;;;5104283;28;20198;-47
2021/10/13 08:31:56;;;;;;;6.03;4.83;;;8.00;99.90;;;;;;5081685;27;20220;-53
2021/10/13 08:34:23;;;;;;;7.70;5.57;;;8.10;99.90;;;;;;5100612;28;20573;-47
2021/10/13 08:36:50;;;;;;;8.20;5.50;;;8.20;99.90;;;;;;5095803;28;20625;-54
2021/10/13 08:39:17;;;;;;;5.30;4.77;;;8.30;99.90;;;;;;5101397;27;20201;-47
2021/10/13 08:41:44;;;;;;;6.27;4.83;;;8.40;99.90;;;;;;5096874;28;20205;-51
2021/10/13 08:44:13;;;;;;;6.60;4.53;;;8.40;99.90;;;;;;5093058;28;20835;-48
2021/10/13 08:46:40;;;;;;;5.23;4.30;;;8.50;99.90;;;;;;5098053;28;20201;-53
2021/10/13 08:49:06;;;;;;;4.63;4.20;;;8.60;99.90;;;;;;5087967;27;20204;-49
2021/10/13 08:51:35;;;;;;;5.47;4.00;;;8.70;99.90;;;;;;5094326;28;20693;-49
2021/10/13 08:54:02;;;;;;;4.77;4.27;;;8.80;99.90;;;;;;5098126;28;20213;-49
2021/10/13 08:56:29;;;;;;;7.60;4.80;;;8.90;99.90;;;;;;5103698;28;20226;-46
2021/10/13 08:58:56;;;;;;;5.63;3.90;;;8.90;99.90;;;;;;5095117;28;20193;-52
2021/10/13 09:01:23;;;;;;;5.30;4.00;;;8.90;99.90;;;;;;5091023;28;20668;-50
2021/10/13 09:03:57;;;;;;;5.27;3.83;;;9.00;99.90;;;;;;5087018;28;20224;-46
2021/10/13 09:06:25;;;;;;;5.97;3.13;;;9.10;99.90;;;;;;5079090;28;20194;-49
2021/10/13 09:08:58;;;;;;;7.10;4.00;;;9.10;99.90;;;;;;5096105;28;20696;-47
2021/10/13 09:11:39;;;;;;;6.07;3.90;;;9.20;99.90;;;;;;5097207;28;20204;-48
2021/10/13 09:14:12;;;;;;;3.77;3.17;;;9.30;99.90;;;;;;5094394;28;20213;-47
2021/10/13 09:17:01;;;;;;;9.90;3.30;;;9.30;99.90;;;;;;5093197;28;20302;-49
2021/10/13 09:19:30;;;;;;;2.77;2.53;;;9.40;99.90;;;;;;5072937;28;20284;-52
2021/10/13 09:22:00;;;;;;;8.00;2.90;;;9.40;99.90;;;;;;5084377;28;20197;-48
2021/10/13 09:24:30;;;;;;;5.23;3.20;;;9.40;99.90;;;;;;5090412;28;20214;-52
2021/10/13 09:26:58;;;;;;;4.57;3.20;;;9.50;99.90;;;;;;5095221;28;20559;-47
2021/10/13 09:29:25;;;;;;;5.17;3.83;;;9.60;99.90;;;;;;5096632;28;20209;-47
2021/10/13 09:31:57;;;;;;;4.67;3.20;;;9.70;99.90;;;;;;5099881;28;20217;-45
2021/10/13 09:34:23;;;;;;;5.23;2.90;;;9.90;99.90;;;;;;5096648;28;20213;-52
2021/10/13 09:36:58;;;;;;;5.03;2.93;;;10.00;99.90;;;;;;5085852;28;20213;-47
2021/10/13 09:39:25;;;;;;;4.13;2.57;;;10.00;99.90;;;;;;5088260;28;20288;-47
2021/10/13 09:41:58;;;;;;;3.47;2.63;;;10.00;99.90;;;;;;5103473;28;20201;-50
2021/10/13 09:44:25;;;;;;;2.97;2.50;;;10.00;99.90;;;;;;5102352;28;20277;-46
2021/10/13 09:46:57;;;;;;;4.33;2.73;;;10.00;99.90;;;;;;5104232;28;20193;-54
2021/10/13 09:49:32;;;;;;;8.63;3.17;;;10.10;99.90;;;;;;5091128;28;20197;-47
2021/10/13 09:52:04;;;;;;;4.93;3.00;;;10.10;99.90;;;;;;5090705;28;20204;-47
2021/10/13 09:54:31;;;;;;;6.63;3.20;;;10.20;99.90;;;;;;5082893;28;20216;-46
2021/10/13 09:56:59;;;;;;;8.87;3.90;;;10.30;99.90;;;;;;5102019;28;20217;-48
2021/10/13 09:59:25;;;;;;;5.67;2.90;;;10.40;99.90;;;;;;5100005;28;20197;-49
2021/10/13 10:01:55;;;;;;;3.20;2.90;;;10.40;99.90;;;;;;5098648;28;20206;-46
2021/10/13 10:04:25;;;;;;;4.20;2.93;;;10.40;99.90;;;;;;5090090;28;20732;-50
2021/10/13 10:06:54;;;;;;;4.50;2.87;;;10.50;99.90;;;;;;5083616;27;20205;-45
2021/10/13 10:09:23;;;;;;;7.53;3.00;;;10.50;99.90;;;;;;5086471;28;20259;-46
2021/10/13 10:11:51;;;;;;;5.47;2.83;;;10.50;99.90;;;;;;5098392;27;20298;-50
2021/10/13 10:14:46;;;;;;;5.13;2.90;;;10.60;99.90;;;;;;5105292;28;20662;-50
2021/10/13 10:17:15;;;;;;;5.40;3.00;;;10.70;99.90;;;;;;5101283;28;20589;-55
2021/10/13 10:19:44;;;;;;;3.00;2.80;;;10.70;99.90;;;;;;5093022;28;20284;-51
2021/10/13 10:22:13;;;;;;;3.50;2.60;;;10.70;99.90;;;;;;5095772;27;20558;-51
2021/10/13 10:24:50;;;;;;;6.20;3.03;;;10.70;99.90;;;;;;5092268;27;20450;-46
2021/10/13 10:27:27;;;;;;;5.13;2.80;;;10.80;99.90;;;;;;5098280;28;20201;-53
2021/10/13 10:30:14;;;;;;;3.80;2.93;;;10.80;99.90;;;;;;5104091;28;20200;-47
2021/10/13 10:32:42;;;;;;;3.43;3.00;;;10.80;99.90;;;;;;5099783;28;20887;-45
2021/10/13 10:35:11;;;;;;;3.13;2.60;;;10.90;99.90;;;;;;5096300;28;20251;-48
2021/10/13 10:37:39;;;;;;;2.90;2.40;;;10.90;99.90;;;;;;5090425;27;20519;-49
2021/10/13 10:40:08;;;;;;;3.97;2.37;;;10.90;99.90;;;;;;5104183;28;20193;-46
2021/10/13 10:43:00;;;;;;;3.53;2.73;;;10.90;99.90;;;;;;5096431;28;20191;-49
2021/10/13 10:45:38;;;;;;;3.93;3.17;;;10.90;99.90;;;;;;5101803;28;20215;-54
2021/10/13 10:48:07;;;;;;;3.30;2.60;;;10.90;99.90;;;;;;5092787;28;20189;-45
2021/10/13 10:50:38;;;;;;;3.97;2.87;;;10.90;99.90;;;;;;5100465;27;20206;-51
2021/10/13 10:53:28;;;;;;;4.33;2.70;;;11.00;99.90;;;;;;5085983;27;20303;-48
2021/10/13 10:55:58;;;;;;;3.50;2.87;;;11.10;99.90;;;;;;5101023;27;20205;-46
2021/10/13 10:58:26;;;;;;;6.03;2.93;;;11.20;99.90;;;;;;5105390;28;20215;-48
2021/10/13 11:01:05;;;;;;;4.17;2.67;;;11.20;99.90;;;;;;5090423;28;20201;-50
2021/10/13 11:03:36;;;;;;;3.17;2.43;;;11.30;99.90;;;;;;5103464;28;20228;-49
2021/10/13 11:06:14;;;;;;;3.83;2.67;;;11.30;99.90;;;;;;5094907;28;20201;-49
2021/10/13 11:08:55;;;;;;;7.27;2.77;;;11.40;99.90;;;;;;5090338;27;20227;-53
2021/10/13 11:11:23;;;;;;;4.97;2.90;;;11.40;99.90;;;;;;5105554;28;20208;-44
2021/10/13 11:13:55;;;;;;;5.23;2.37;;;11.50;99.90;;;;;;5088041;28;20217;-48
2021/10/13 11:16:23;;;;;;;6.10;2.30;;;11.60;99.90;;;;;;5104238;28;20196;-45
2021/10/13 11:18:50;;;;;;;3.07;1.97;;;11.70;99.90;;;;;;5100104;28;20662;-52
2021/10/13 11:21:17;;;;;;;9.37;2.60;;;11.70;99.90;;;;;;5103961;28;20205;-47
2021/10/13 11:23:43;;;;;;;3.57;2.10;;;11.80;99.90;;;;;;5087699;27;20221;-50
2021/10/13 11:26:11;;;;;;;4.70;2.17;;;11.80;99.90;;;;;;5094958;28;20712;-45
2021/10/13 11:28:40;;;;;;;3.23;2.40;;;11.90;99.90;;;;;;5098882;28;20193;-53
2021/10/13 11:31:09;;;;;;;6.33;2.47;;;11.90;99.90;;;;;;5092205;28;20200;-50
2021/10/13 11:33:38;;;;;;;3.37;1.70;;;12.00;99.90;;;;;;5103111;28;20224;-48
2021/10/13 11:36:08;;;;;;;4.63;2.00;;;12.00;99.90;;;;;;5098250;28;20920;-44
2021/10/13 11:38:37;;;;;;;3.40;1.43;;;12.00;99.90;;;;;;5090695;28;20217;-53
2021/10/13 11:41:10;;;;;;;4.17;1.73;;;12.00;99.90;;;;;;5089004;27;20228;-50
2021/10/13 11:43:38;;;;;;;2.13;1.77;;;12.00;99.90;;;;;;5096888;28;20217;-51
2021/10/13 11:46:06;;;;;;;6.93;1.60;;;12.10;99.90;;;;;;5089210;28;20893;-49
2021/10/13 11:48:34;;;;;;;4.37;1.67;;;12.20;99.90;;;;;;5104914;28;20190;-51
2021/10/13 11:51:08;;;;;;;5.07;1.70;;;12.20;99.90;;;;;;5101204;28;20219;-53
2021/10/13 11:53:35;;;;;;;5.03;1.97;;;12.40;99.90;;;;;;5100322;28;20216;-48
2021/10/13 11:56:09;;;;;;;4.27;1.40;;;12.40;99.90;;;;;;5092788;27;20429;-48
2021/10/13 11:58:36;;;;;;;4.33;1.60;;;12.40;99.90;;;;;;5096308;27;20631;-50
2021/10/13 12:01:02;;;;;;;4.93;1.77;;;12.50;99.90;;;;;;5090699;28;20206;-47
2021/10/13 12:03:30;;;;;;;4.93;1.97;;;12.50;99.90;;;;;;5104381;28;20213;-50
2021/10/13 12:05:58;;;;;;;4.97;2.20;;;12.50;99.90;;;;;;5098433;28;20194;-52
2021/10/13 12:08:28;;;;;;;7.37;2.57;;;12.50;99.90;;;;;;5104919;28;20193;-44
2021/10/13 12:11:03;;;;;;;4.67;2.23;;;12.50;99.90;;;;;;5083928;27;20209;-47
2021/10/13 12:13:32;;;;;;;4.27;1.77;;;12.40;99.90;;;;;;5099352;28;20249;-61
2021/10/13 12:16:00;;;;;;;3.83;1.23;;;12.30;99.90;;;;;;5096492;27;20186;-45
2021/10/13 12:18:31;;;;;;;2.23;1.50;;;12.30;99.90;;;;;;5096734;28;20233;-48
2021/10/13 12:21:10;;;;;;;5.47;1.33;;;12.20;99.90;;;;;;5094739;28;20758;-50
2021/10/13 12:23:43;;;;;;;4.27;1.30;;;12.20;99.90;;;;;;5094902;28;20282;-51
2021/10/13 12:26:15;;;;;;;3.20;0.90;;;12.20;99.90;;;;;;5090898;27;20310;-49
2021/10/13 12:28:43;;;;;;;4.07;1.47;;;12.20;99.90;;;;;;5085370;28;20202;-52
2021/10/13 12:31:12;;;;;;;4.30;1.40;;;12.10;99.90;;;;;;5095702;28;20201;-52
2021/10/13 12:33:41;;;;;;;2.30;1.27;;;12.20;99.90;;;;;;5097860;28;20221;-55
2021/10/13 12:36:18;;;;;;;2.47;1.00;;;12.20;99.90;;;;;;5093887;28;20201;-45
2021/10/13 12:38:51;;;;;;;2.40;1.20;;;12.20;99.90;;;;;;5094383;28;20600;-56
2021/10/13 12:41:18;;;;;;;6.07;2.17;;;12.30;99.90;;;;;;5088692;27;20712;-52
2021/10/13 12:43:47;;;;;;;4.80;1.70;;;12.30;99.90;;;;;;5089051;28;20232;-51
2021/10/13 12:46:25;;;;;;;2.67;1.17;;;12.30;99.90;;;;;;5101831;28;20197;-47
2021/10/13 12:48:53;;;;;;;6.00;1.80;;;12.30;99.90;;;;;;5091492;28;20201;-54
2021/10/13 12:51:20;;;;;;;3.80;1.40;;;12.30;99.90;;;;;;5096808;28;20209;-45
2021/10/13 12:53:48;;;;;;;4.83;1.30;;;12.40;99.90;;;;;;5083011;27;20220;-44
2021/10/13 12:56:17;;;;;;;4.13;1.53;;;12.50;99.90;;;;;;5090681;27;20212;-48
2021/10/13 12:58:46;;;;;;;3.00;1.20;;;12.70;99.90;;;;;;5088993;27;20209;-49
2021/10/13 13:01:14;;;;;;;5.37;1.30;;;12.70;99.90;;;;;;5097655;28;20209;-50